sensor_id;sensor_type;location;lat;lon;timestamp;pressure;altitude;pressure_sealevel;temperature;humidity
62634;BME280;48704;50.534;6.442;2024-03-23T00:55:06;94818.06;;;3.62;100.00
62634;BME280;48704;50.534;6.442;2024-03-23T00:57:32;94822.38;;;3.72;100.00
62634;BME280;48704;50.534;6.442;2024-03-23T00:59:58;94818.63;;;3.88;100.00
62634;BME280;48704;50.534;6.442;2024-03-23T01:02:23;94807.97;;;3.68;100.00
62634;BME280;48704;50.534;6.442;2024-03-23T01:04:48;94816.00;;;4.24;100.00
62634;BME280;48704;50.534;6.442;2024-03-23T01:07:13;94809.69;;;4.15;100.00
62634;BME280;48704;50.534;6.442;2024-03-23T01:09:39;94804.03;;;3.78;100.00
62634;BME280;48704;50.534;6.442;2024-03-23T01:12:05;94812.88;;;3.73;100.00
62634;BME280;48704;50.534;6.442;2024-03-23T01:14:30;94815.63;;;3.64;100.00
62634;BME280;48704;50.534;6.442;2024-03-23T01:16:55;94815.81;;;3.79;100.00
62634;BME280;48704;50.534;6.442;2024-03-23T01:19:21;94816.25;;;3.68;100.00
62634;BME280;48704;50.534;6.442;2024-03-23T01:21:46;94817.78;;;3.69;100.00
62634;BME280;48704;50.534;6.442;2024-03-23T01:24:11;94795.59;;;3.73;100.00
62634;BME280;48704;50.534;6.442;2024-03-23T01:26:37;94804.75;;;3.39;100.00
62634;BME280;48704;50.534;6.442;2024-03-23T01:29:02;94801.66;;;3.36;100.00
62634;BME280;48704;50.534;6.442;2024-03-23T01:31:27;94790.31;;;3.25;100.00
62634;BME280;48704;50.534;6.442;2024-03-23T01:33:53;94800.03;;;3.17;100.00
62634;BME280;48704;50.534;6.442;2024-03-23T01:36:18;94801.19;;;3.60;100.00
62634;BME280;48704;50.534;6.442;2024-03-23T01:38:43;94800.31;;;3.63;100.00
62634;BME280;48704;50.534;6.442;2024-03-23T01:41:08;94795.06;;;3.56;100.00
62634;BME280;48704;50.534;6.442;2024-03-23T01:43:34;94797.88;;;3.65;100.00
62634;BME280;48704;50.534;6.442;2024-03-23T01:45:59;94807.97;;;3.68;100.00
62634;BME280;48704;50.534;6.442;2024-03-23T01:48:25;94789.38;;;3.50;100.00
62634;BME280;48704;50.534;6.442;2024-03-23T01:50:50;94785.66;;;3.44;100.00
62634;BME280;48704;50.534;6.442;2024-03-23T01:53:15;94772.56;;;3.26;100.00
62634;BME280;48704;50.534;6.442;2024-03-23T01:55:47;94775.06;;;3.64;100.00
62634;BME280;48704;50.534;6.442;2024-03-23T01:58:12;94778.41;;;3.28;100.00
62634;BME280;48704;50.534;6.442;2024-03-23T02:00:37;94764.50;;;3.63;100.00
62634;BME280;48704;50.534;6.442;2024-03-23T02:03:21;94764.34;;;3.35;100.00
62634;BME280;48704;50.534;6.442;2024-03-23T02:05:47;94766.56;;;3.50;100.00
62634;BME280;48704;50.534;6.442;2024-03-23T02:08:12;94785.25;;;3.55;100.00
62634;BME280;48704;50.534;6.442;2024-03-23T02:10:37;94792.47;;;3.30;100.00
62634;BME280;48704;50.534;6.442;2024-03-23T02:13:03;94787.31;;;3.42;100.00
62634;BME280;48704;50.534;6.442;2024-03-23T02:15:28;94784.53;;;3.63;100.00
62634;BME280;48704;50.534;6.442;2024-03-23T02:17:53;94776.72;;;3.09;100.00
62634;BME280;48704;50.534;6.442;2024-03-23T02:20:18;94791.47;;;3.15;100.00
62634;BME280;48704;50.534;6.442;2024-03-23T02:22:44;94792.91;;;3.07;100.00
62634;BME280;48704;50.534;6.442;2024-03-23T02:25:09;94791.97;;;3.01;100.00
62634;BME280;48704;50.534;6.442;2024-03-23T02:27:34;94794.91;;;3.07;100.00
62634;BME280;48704;50.534;6.442;2024-03-23T02:30:01;94795.56;;;2.89;100.00
62634;BME280;48704;50.534;6.442;2024-03-23T02:32:26;94805.34;;;2.90;100.00
62634;BME280;48704;50.534;6.442;2024-03-23T02:34:51;94806.50;;;2.45;100.00
62634;BME280;48704;50.534;6.442;2024-03-23T02:37:17;94813.34;;;2.28;100.00
62634;BME280;48704;50.534;6.442;2024-03-23T02:39:42;94809.09;;;1.89;100.00
62634;BME280;48704;50.534;6.442;2024-03-23T02:42:07;94809.53;;;1.87;100.00
62634;BME280;48704;50.534;6.442;2024-03-23T02:44:33;94807.69;;;1.84;100.00
62634;BME280;48704;50.534;6.442;2024-03-23T02:46:58;94790.00;;;1.73;100.00
62634;BME280;48704;50.534;6.442;2024-03-23T02:49:23;94814.47;;;1.67;100.00
62634;BME280;48704;50.534;6.442;2024-03-23T02:51:48;94822.94;;;1.47;100.00
62634;BME280;48704;50.534;6.442;2024-03-23T02:54:14;94804.69;;;1.91;100.00
62634;BME280;48704;50.534;6.442;2024-03-23T02:56:39;94808.13;;;1.70;100.00
62634;BME280;48704;50.534;6.442;2024-03-23T02:59:05;94801.06;;;1.44;100.00
62634;BME280;48704;50.534;6.442;2024-03-23T03:01:30;94800.28;;;1.30;100.00
62634;BME280;48704;50.534;6.442;2024-03-23T03:03:55;94820.63;;;1.58;100.00
62634;BME280;48704;50.534;6.442;2024-03-23T03:06:25;94832.81;;;1.57;100.00
62634;BME280;48704;50.534;6.442;2024-03-23T03:08:50;94817.00;;;1.61;100.00
62634;BME280;48704;50.534;6.442;2024-03-23T03:11:16;94811.28;;;1.43;100.00
62634;BME280;48704;50.534;6.442;2024-03-23T03:13:41;94804.25;;;1.42;100.00
62634;BME280;48704;50.534;6.442;2024-03-23T03:16:10;94810.94;;;1.28;100.00
62634;BME280;48704;50.534;6.442;2024-03-23T03:18:35;94817.22;;;1.54;100.00
62634;BME280;48704;50.534;6.442;2024-03-23T03:21:01;94810.94;;;1.54;100.00
62634;BME280;48704;50.534;6.442;2024-03-23T03:23:26;94806.78;;;1.62;100.00
62634;BME280;48704;50.534;6.442;2024-03-23T03:25:52;94812.94;;;1.91;100.00
62634;BME280;48704;50.534;6.442;2024-03-23T03:28:17;94797.75;;;1.49;100.00
62634;BME280;48704;50.534;6.442;2024-03-23T03:30:42;94808.78;;;1.74;100.00
62634;BME280;48704;50.534;6.442;2024-03-23T03:33:07;94798.88;;;1.64;100.00
62634;BME280;48704;50.534;6.442;2024-03-23T03:35:33;94800.19;;;1.97;100.00
62634;BME280;48704;50.534;6.442;2024-03-23T03:37:58;94801.94;;;1.91;100.00
62634;BME280;48704;50.534;6.442;2024-03-23T03:40:23;94791.72;;;1.54;100.00
62634;BME280;48704;50.534;6.442;2024-03-23T03:42:50;94807.66;;;1.97;100.00
62634;BME280;48704;50.534;6.442;2024-03-23T03:45:15;94804.72;;;1.79;100.00
62634;BME280;48704;50.534;6.442;2024-03-23T03:47:41;94817.97;;;1.55;100.00
62634;BME280;48704;50.534;6.442;2024-03-23T03:50:06;94812.72;;;1.98;100.00
62634;BME280;48704;50.534;6.442;2024-03-23T03:52:31;94808.78;;;1.74;100.00
62634;BME280;48704;50.534;6.442;2024-03-23T03:55:01;94809.41;;;2.04;100.00
62634;BME280;48704;50.534;6.442;2024-03-23T03:57:27;94803.84;;;1.82;100.00
62634;BME280;48704;50.534;6.442;2024-03-23T03:59:53;94806.47;;;1.60;100.00
62634;BME280;48704;50.534;6.442;2024-03-23T04:02:18;94798.75;;;1.55;100.00
62634;BME280;48704;50.534;6.442;2024-03-23T04:04:43;94808.53;;;1.56;100.00
62634;BME280;48704;50.534;6.442;2024-03-23T04:07:08;94812.94;;;1.66;100.00
62634;BME280;48704;50.534;6.442;2024-03-23T04:09:34;94812.53;;;1.80;100.00
62634;BME280;48704;50.534;6.442;2024-03-23T04:11:59;94819.09;;;1.95;100.00
62634;BME280;48704;50.534;6.442;2024-03-23T04:14:24;94823.38;;;1.96;100.00
62634;BME280;48704;50.534;6.442;2024-03-23T04:16:49;94825.13;;;1.90;100.00
62634;BME280;48704;50.534;6.442;2024-03-23T04:19:15;94830.16;;;1.54;100.00
62634;BME280;48704;50.534;6.442;2024-03-23T04:21:40;94823.50;;;1.80;100.00
62634;BME280;48704;50.534;6.442;2024-03-23T04:24:06;94831.84;;;1.64;100.00
62634;BME280;48704;50.534;6.442;2024-03-23T04:26:43;94845.47;;;1.80;100.00
62634;BME280;48704;50.534;6.442;2024-03-23T04:29:08;94841.28;;;1.88;100.00
62634;BME280;48704;50.534;6.442;2024-03-23T04:31:34;94832.16;;;1.91;100.00
62634;BME280;48704;50.534;6.442;2024-03-23T04:34:01;94838.09;;;1.90;100.00
62634;BME280;48704;50.534;6.442;2024-03-23T04:36:26;94848.56;;;2.08;100.00
62634;BME280;48704;50.534;6.442;2024-03-23T04:38:51;94849.34;;;1.83;100.00
62634;BME280;48704;50.534;6.442;2024-03-23T04:41:17;94840.84;;;2.03;100.00
62634;BME280;48704;50.534;6.442;2024-03-23T04:43:43;94832.81;;;1.95;100.00
62634;BME280;48704;50.534;6.442;2024-03-23T04:46:08;94834.47;;;2.06;100.00
62634;BME280;48704;50.534;6.442;2024-03-23T04:48:34;94840.84;;;2.03;100.00
62634;BME280;48704;50.534;6.442;2024-03-23T04:50:59;94832.50;;;2.06;100.00
62634;BME280;48704;50.534;6.442;2024-03-23T04:53:25;94829.19;;;1.98;100.00
62634;BME280;48704;50.534;6.442;2024-03-23T04:55:54;94822.50;;;2.12;100.00
62634;BME280;48704;50.534;6.442;2024-03-23T04:58:20;94824.81;;;2.14;100.00
62634;BME280;48704;50.534;6.442;2024-03-23T05:00:45;94821.50;;;2.19;100.00
62634;BME280;48704;50.534;6.442;2024-03-23T05:03:10;94823.28;;;2.13;100.00
62634;BME280;48704;50.534;6.442;2024-03-23T05:05:36;94824.47;;;1.99;100.00
62634;BME280;48704;50.534;6.442;2024-03-23T05:08:01;94834.59;;;2.02;100.00
62634;BME280;48704;50.534;6.442;2024-03-23T05:10:26;94835.47;;;1.99;100.00
62634;BME280;48704;50.534;6.442;2024-03-23T05:12:51;94835.25;;;1.93;100.00
62634;BME280;48704;50.534;6.442;2024-03-23T05:15:17;94843.50;;;1.68;100.00
62634;BME280;48704;50.534;6.442;2024-03-23T05:17:42;94841.63;;;1.78;100.00
62634;BME280;48704;50.534;6.442;2024-03-23T05:20:08;94835.94;;;1.85;100.00
62634;BME280;48704;50.534;6.442;2024-03-23T05:22:37;94840.31;;;1.82;100.00
62634;BME280;48704;50.534;6.442;2024-03-23T05:25:03;94838.69;;;1.85;100.00
62634;BME280;48704;50.534;6.442;2024-03-23T05:27:33;94845.03;;;1.94;100.00
62634;BME280;48704;50.534;6.442;2024-03-23T05:29:58;94856.03;;;1.94;100.00
62634;BME280;48704;50.534;6.442;2024-03-23T05:32:24;94845.47;;;1.93;100.00
62634;BME280;48704;50.534;6.442;2024-03-23T05:34:49;94856.38;;;1.84;100.00
62634;BME280;48704;50.534;6.442;2024-03-23T05:37:20;94858.44;;;2.05;100.00
62634;BME280;48704;50.534;6.442;2024-03-23T05:39:45;94858.00;;;2.07;100.00
62634;BME280;48704;50.534;6.442;2024-03-23T05:42:13;94846.47;;;2.12;100.00
62634;BME280;48704;50.534;6.442;2024-03-23T05:44:39;94847.69;;;2.11;100.00
62634;BME280;48704;50.534;6.442;2024-03-23T05:47:05;94850.75;;;2.13;100.00
62634;BME280;48704;50.534;6.442;2024-03-23T05:49:30;94855.38;;;2.16;100.00
62634;BME280;48704;50.534;6.442;2024-03-23T05:51:55;94859.00;;;2.13;100.00
62634;BME280;48704;50.534;6.442;2024-03-23T05:54:21;94865.13;;;1.91;100.00
62634;BME280;48704;50.534;6.442;2024-03-23T05:56:46;94860.63;;;1.97;100.00
62634;BME280;48704;50.534;6.442;2024-03-23T05:59:11;94864.59;;;1.96;100.00
62634;BME280;48704;50.534;6.442;2024-03-23T06:01:37;94865.13;;;1.91;100.00
62634;BME280;48704;50.534;6.442;2024-03-23T06:04:04;94871.19;;;1.86;100.00
62634;BME280;48704;50.534;6.442;2024-03-23T06:06:29;94870.63;;;1.91;100.00
62634;BME280;48704;50.534;6.442;2024-03-23T06:08:55;94874.47;;;1.94;100.00
62634;BME280;48704;50.534;6.442;2024-03-23T06:11:20;94870.19;;;1.93;100.00
62634;BME280;48704;50.534;6.442;2024-03-23T06:13:46;94864.38;;;1.78;100.00
62634;BME280;48704;50.534;6.442;2024-03-23T06:16:11;94880.84;;;1.91;100.00
62634;BME280;48704;50.534;6.442;2024-03-23T06:18:36;94880.09;;;1.90;100.00
62634;BME280;48704;50.534;6.442;2024-03-23T06:21:02;94886.78;;;1.89;100.00
62634;BME280;48704;50.534;6.442;2024-03-23T06:23:27;94879.53;;;1.95;100.00
62634;BME280;48704;50.534;6.442;2024-03-23T06:25:52;94885.59;;;2.03;100.00
62634;BME280;48704;50.534;6.442;2024-03-23T06:28:17;94895.59;;;2.10;100.00
62634;BME280;48704;50.534;6.442;2024-03-23T06:30:43;94886.81;;;2.15;100.00
62634;BME280;48704;50.534;6.442;2024-03-23T06:33:08;94883.94;;;2.18;100.00
62634;BME280;48704;50.534;6.442;2024-03-23T06:35:34;94878.47;;;2.18;100.00
62634;BME280;48704;50.534;6.442;2024-03-23T06:37:59;94882.81;;;2.28;100.00
62634;BME280;48704;50.534;6.442;2024-03-23T06:40:24;94878.09;;;2.29;100.00
62634;BME280;48704;50.534;6.442;2024-03-23T06:42:50;94882.16;;;2.37;100.00
62634;BME280;48704;50.534;6.442;2024-03-23T06:45:16;94880.50;;;2.40;100.00
62634;BME280;48704;50.534;6.442;2024-03-23T06:47:41;94883.59;;;2.54;100.00
62634;BME280;48704;50.534;6.442;2024-03-23T06:50:07;94890.94;;;2.57;100.00
62634;BME280;48704;50.534;6.442;2024-03-23T06:52:32;94897.63;;;2.69;100.00
62634;BME280;48704;50.534;6.442;2024-03-23T06:54:57;94894.19;;;2.78;100.00
62634;BME280;48704;50.534;6.442;2024-03-23T06:57:23;94898.97;;;2.99;100.00
62634;BME280;48704;50.534;6.442;2024-03-23T06:59:48;94895.28;;;2.93;100.00
62634;BME280;48704;50.534;6.442;2024-03-23T07:02:14;94901.44;;;2.97;100.00
62634;BME280;48704;50.534;6.442;2024-03-23T07:04:39;94909.34;;;2.95;100.00
62634;BME280;48704;50.534;6.442;2024-03-23T07:07:05;94919.72;;;2.91;100.00
62634;BME280;48704;50.534;6.442;2024-03-23T07:09:30;94906.00;;;3.00;100.00
62634;BME280;48704;50.534;6.442;2024-03-23T07:11:56;94907.56;;;3.01;100.00
62634;BME280;48704;50.534;6.442;2024-03-23T07:14:22;94903.34;;;3.09;100.00
62634;BME280;48704;50.534;6.442;2024-03-23T07:16:48;94902.22;;;3.19;100.00
62634;BME280;48704;50.534;6.442;2024-03-23T07:19:15;94906.19;;;3.18;100.00
62634;BME280;48704;50.534;6.442;2024-03-23T07:21:42;94902.22;;;3.41;100.00
62634;BME280;48704;50.534;6.442;2024-03-23T07:24:07;94906.72;;;3.48;100.00
62634;BME280;48704;50.534;6.442;2024-03-23T07:26:32;94903.75;;;3.42;100.00
62634;BME280;48704;50.534;6.442;2024-03-23T07:28:58;94908.50;;;3.42;100.00
62634;BME280;48704;50.534;6.442;2024-03-23T07:31:23;94903.88;;;3.39;100.00
62634;BME280;48704;50.534;6.442;2024-03-23T07:33:50;94901.56;;;3.15;100.00
62634;BME280;48704;50.534;6.442;2024-03-23T07:36:15;94912.38;;;3.10;100.00
62634;BME280;48704;50.534;6.442;2024-03-23T07:38:41;94912.69;;;3.12;100.00
62634;BME280;48704;50.534;6.442;2024-03-23T07:41:11;94912.81;;;3.08;100.00
62634;BME280;48704;50.534;6.442;2024-03-23T07:43:38;94914.13;;;3.16;100.00
62634;BME280;48704;50.534;6.442;2024-03-23T07:46:04;94921.50;;;3.19;100.00
62634;BME280;48704;50.534;6.442;2024-03-23T07:48:30;94915.66;;;3.17;100.00
62634;BME280;48704;50.534;6.442;2024-03-23T07:51:02;94919.63;;;3.38;100.00
62634;BME280;48704;50.534;6.442;2024-03-23T07:53:29;94917.72;;;3.48;100.00
62634;BME280;48704;50.534;6.442;2024-03-23T07:55:58;94918.63;;;3.45;100.00
62634;BME280;48704;50.534;6.442;2024-03-23T07:58:24;94930.94;;;3.53;100.00
62634;BME280;48704;50.534;6.442;2024-03-23T08:00:50;94911.81;;;3.36;100.00
62634;BME280;48704;50.534;6.442;2024-03-23T08:03:15;94938.03;;;3.41;100.00
62634;BME280;48704;50.534;6.442;2024-03-23T08:05:41;94941.84;;;3.22;100.00
62634;BME280;48704;50.534;6.442;2024-03-23T08:08:06;94940.28;;;3.33;100.00
62634;BME280;48704;50.534;6.442;2024-03-23T08:10:32;94929.88;;;3.38;100.00
62634;BME280;48704;50.534;6.442;2024-03-23T08:12:57;94937.81;;;3.35;100.00
62634;BME280;48704;50.534;6.442;2024-03-23T08:15:22;94933.63;;;3.65;100.00
62634;BME280;48704;50.534;6.442;2024-03-23T08:17:49;94940.16;;;3.81;100.00
62634;BME280;48704;50.534;6.442;2024-03-23T08:20:14;94925.91;;;3.82;100.00
62634;BME280;48704;50.534;6.442;2024-03-23T08:22:39;94929.13;;;3.81;100.00
62634;BME280;48704;50.534;6.442;2024-03-23T08:25:05;94926.81;;;3.79;100.00
62634;BME280;48704;50.534;6.442;2024-03-23T08:27:31;94932.22;;;3.61;100.00
62634;BME280;48704;50.534;6.442;2024-03-23T08:29:56;94935.81;;;3.71;100.00
62634;BME280;48704;50.534;6.442;2024-03-23T08:32:21;94920.66;;;3.75;100.00
62634;BME280;48704;50.534;6.442;2024-03-23T08:34:46;94956.03;;;3.98;100.00
62634;BME280;48704;50.534;6.442;2024-03-23T08:37:12;94931.44;;;4.04;100.00
62634;BME280;48704;50.534;6.442;2024-03-23T08:39:37;94927.56;;;4.01;100.00
62634;BME280;48704;50.534;6.442;2024-03-23T08:42:02;94926.94;;;3.97;100.00
62634;BME280;48704;50.534;6.442;2024-03-23T08:44:28;94929.75;;;4.07;100.00
62634;BME280;48704;50.534;6.442;2024-03-23T08:46:56;94934.34;;;4.10;100.00
62634;BME280;48704;50.534;6.442;2024-03-23T08:49:21;94919.06;;;4.18;100.00
62634;BME280;48704;50.534;6.442;2024-03-23T08:51:46;94928.03;;;4.31;100.00
62634;BME280;48704;50.534;6.442;2024-03-23T08:54:12;94932.06;;;4.48;100.00
62634;BME280;48704;50.534;6.442;2024-03-23T08:56:37;94937.94;;;4.59;100.00
62634;BME280;48704;50.534;6.442;2024-03-23T08:59:02;94944.16;;;4.91;100.00
62634;BME280;48704;50.534;6.442;2024-03-23T09:01:28;94937.16;;;5.08;100.00
62634;BME280;48704;50.534;6.442;2024-03-23T09:03:53;94947.22;;;4.84;100.00
62634;BME280;48704;50.534;6.442;2024-03-23T09:06:19;94935.91;;;5.00;100.00
62634;BME280;48704;50.534;6.442;2024-03-23T09:08:44;94942.41;;;5.43;100.00
62634;BME280;48704;50.534;6.442;2024-03-23T09:11:11;94930.06;;;4.98;100.00
62634;BME280;48704;50.534;6.442;2024-03-23T09:13:37;94944.66;;;4.98;100.00
62634;BME280;48704;50.534;6.442;2024-03-23T09:16:04;94945.97;;;4.76;100.00
62634;BME280;48704;50.534;6.442;2024-03-23T09:18:34;94922.22;;;4.78;100.00
62634;BME280;48704;50.534;6.442;2024-03-23T09:21:00;94924.03;;;4.72;100.00
62634;BME280;48704;50.534;6.442;2024-03-23T09:23:26;94924.09;;;4.50;100.00
62634;BME280;48704;50.534;6.442;2024-03-23T09:25:51;94910.31;;;4.41;100.00
62634;BME280;48704;50.534;6.442;2024-03-23T09:28:16;94923.69;;;4.21;100.00
62634;BME280;48704;50.534;6.442;2024-03-23T09:30:42;94932.66;;;4.12;100.00
62634;BME280;48704;50.534;6.442;2024-03-23T09:33:14;94926.53;;;4.08;100.00
62634;BME280;48704;50.534;6.442;2024-03-23T09:35:40;94927.16;;;4.12;100.00
62634;BME280;48704;50.534;6.442;2024-03-23T09:38:05;94921.81;;;3.87;100.00
62634;BME280;48704;50.534;6.442;2024-03-23T09:40:32;94916.44;;;3.83;100.00
62634;BME280;48704;50.534;6.442;2024-03-23T09:42:58;94936.31;;;3.78;100.00
62634;BME280;48704;50.534;6.442;2024-03-23T09:45:27;94929.25;;;3.77;100.00
62634;BME280;48704;50.534;6.442;2024-03-23T09:47:54;94937.72;;;3.61;100.00
62634;BME280;48704;50.534;6.442;2024-03-23T09:50:20;94933.88;;;3.80;100.00
62634;BME280;48704;50.534;6.442;2024-03-23T09:52:48;94937.03;;;4.62;100.00
62634;BME280;48704;50.534;6.442;2024-03-23T09:55:14;94937.63;;;5.25;100.00
62634;BME280;48704;50.534;6.442;2024-03-23T09:57:40;94931.03;;;5.86;100.00
62634;BME280;48704;50.534;6.442;2024-03-23T10:00:06;94962.97;;;5.42;100.00
62634;BME280;48704;50.534;6.442;2024-03-23T10:02:33;94945.50;;;2.46;100.00
62634;BME280;48704;50.534;6.442;2024-03-23T10:04:59;94953.47;;;1.77;100.00
62634;BME280;48704;50.534;6.442;2024-03-23T10:07:25;94954.41;;;1.58;100.00
62634;BME280;48704;50.534;6.442;2024-03-23T10:09:50;94941.81;;;1.31;100.00
62634;BME280;48704;50.534;6.442;2024-03-23T10:12:19;94940.72;;;1.13;100.00
62634;BME280;48704;50.534;6.442;2024-03-23T10:14:45;94928.97;;;1.12;100.00
62634;BME280;48704;50.534;6.442;2024-03-23T10:17:22;94939.94;;;1.70;100.00
62634;BME280;48704;50.534;6.442;2024-03-23T10:19:52;94945.59;;;1.50;100.00
62634;BME280;48704;50.534;6.442;2024-03-23T10:22:21;94943.75;;;1.60;100.00
62634;BME280;48704;50.534;6.442;2024-03-23T10:24:47;94937.94;;;1.58;100.00
62634;BME280;48704;50.534;6.442;2024-03-23T10:27:18;94943.16;;;1.81;100.00
62634;BME280;48704;50.534;6.442;2024-03-23T10:29:47;94932.03;;;1.72;100.00
62634;BME280;48704;50.534;6.442;2024-03-23T10:32:14;94929.88;;;1.92;100.00
62634;BME280;48704;50.534;6.442;2024-03-23T10:34:39;94937.00;;;1.90;100.00
62634;BME280;48704;50.534;6.442;2024-03-23T10:37:06;94934.19;;;2.06;100.00
62634;BME280;48704;50.534;6.442;2024-03-23T10:39:33;94943.31;;;2.16;100.00
62634;BME280;48704;50.534;6.442;2024-03-23T10:42:02;94933.19;;;2.38;100.00
62634;BME280;48704;50.534;6.442;2024-03-23T10:44:28;94934.84;;;2.48;100.00
62634;BME280;48704;50.534;6.442;2024-03-23T10:46:55;94919.00;;;2.52;100.00
62634;BME280;48704;50.534;6.442;2024-03-23T10:49:26;94923.47;;;2.84;100.00
62634;BME280;48704;50.534;6.442;2024-03-23T10:51:52;94930.50;;;4.38;100.00
62634;BME280;48704;50.534;6.442;2024-03-23T10:54:18;94924.00;;;5.49;100.00
62634;BME280;48704;50.534;6.442;2024-03-23T10:57:02;94917.06;;;5.62;100.00
62634;BME280;48704;50.534;6.442;2024-03-23T10:59:29;94909.19;;;5.97;100.00
62634;BME280;48704;50.534;6.442;2024-03-23T11:04:39;94908.16;;;5.13;100.00
62634;BME280;48704;50.534;6.442;2024-03-23T11:09:48;94897.84;;;3.96;100.00
62634;BME280;48704;50.534;6.442;2024-03-23T11:14:48;94902.63;;;3.30;100.00
62634;BME280;48704;50.534;6.442;2024-03-23T11:17:18;94907.63;;;2.76;100.00
62634;BME280;48704;50.534;6.442;2024-03-23T11:19:44;94918.47;;;2.45;100.00
62634;BME280;48704;50.534;6.442;2024-03-23T11:22:09;94923.06;;;2.35;100.00
62634;BME280;48704;50.534;6.442;2024-03-23T11:24:34;94910.75;;;2.27;100.00
62634;BME280;48704;50.534;6.442;2024-03-23T11:27:00;94894.75;;;2.73;100.00
62634;BME280;48704;50.534;6.442;2024-03-23T11:29:29;94896.28;;;2.74;100.00
62634;BME280;48704;50.534;6.442;2024-03-23T11:31:55;94899.03;;;2.86;100.00
62634;BME280;48704;50.534;6.442;2024-03-23T11:34:20;94904.41;;;3.68;100.00
62634;BME280;48704;50.534;6.442;2024-03-23T11:36:46;94898.28;;;4.84;100.00
62634;BME280;48704;50.534;6.442;2024-03-23T11:41:56;94907.69;;;4.07;100.00
62634;BME280;48704;50.534;6.442;2024-03-23T11:44:23;94889.50;;;3.87;100.00
62634;BME280;48704;50.534;6.442;2024-03-23T11:46:49;94888.09;;;3.83;100.00
62634;BME280;48704;50.534;6.442;2024-03-23T11:49:28;94881.63;;;5.33;100.00
62634;BME280;48704;50.534;6.442;2024-03-23T11:51:56;94878.81;;;5.88;100.00
62634;BME280;48704;50.534;6.442;2024-03-23T11:54:26;94873.44;;;6.36;100.00
62634;BME280;48704;50.534;6.442;2024-03-23T11:56:59;94886.97;;;6.34;100.00
62634;BME280;48704;50.534;6.442;2024-03-23T11:59:38;94885.91;;;4.98;100.00
62634;BME280;48704;50.534;6.442;2024-03-23T12:02:10;94899.91;;;4.45;100.00
62634;BME280;48704;50.534;6.442;2024-03-23T12:04:36;94895.91;;;4.06;100.00
62634;BME280;48704;50.534;6.442;2024-03-23T12:09:37;94882.47;;;5.94;100.00
62634;BME280;48704;50.534;6.442;2024-03-23T12:12:08;94880.13;;;6.53;100.00
62634;BME280;48704;50.534;6.442;2024-03-23T12:14:33;94871.81;;;6.53;100.00
62634;BME280;48704;50.534;6.442;2024-03-23T12:17:13;94878.16;;;6.78;99.00
62634;BME280;48704;50.534;6.442;2024-03-23T12:19:39;94859.78;;;5.63;100.00
62634;BME280;48704;50.534;6.442;2024-03-23T12:22:05;94871.66;;;5.18;100.00
62634;BME280;48704;50.534;6.442;2024-03-23T12:24:32;94873.28;;;4.69;100.00
62634;BME280;48704;50.534;6.442;2024-03-23T12:27:03;94864.94;;;4.51;100.00
62634;BME280;48704;50.534;6.442;2024-03-23T12:29:30;94867.31;;;4.22;100.00
62634;BME280;48704;50.534;6.442;2024-03-23T12:31:59;94880.06;;;5.60;100.00
62634;BME280;48704;50.534;6.442;2024-03-23T12:34:24;94856.88;;;5.66;100.00
62634;BME280;48704;50.534;6.442;2024-03-23T12:36:50;94856.31;;;6.14;100.00
62634;BME280;48704;50.534;6.442;2024-03-23T12:39:15;94843.59;;;7.12;100.00
62634;BME280;48704;50.534;6.442;2024-03-23T12:41:40;94853.44;;;7.36;96.10
62634;BME280;48704;50.534;6.442;2024-03-23T12:44:05;94840.41;;;7.43;94.11
62634;BME280;48704;50.534;6.442;2024-03-23T12:46:33;94850.72;;;7.95;95.38
62634;BME280;48704;50.534;6.442;2024-03-23T12:48:58;94837.94;;;8.18;93.34
62634;BME280;48704;50.534;6.442;2024-03-23T12:51:24;94836.06;;;8.39;89.81
62634;BME280;48704;50.534;6.442;2024-03-23T12:53:50;94845.88;;;8.90;89.25
62634;BME280;48704;50.534;6.442;2024-03-23T12:56:16;94853.41;;;8.54;85.86
62634;BME280;48704;50.534;6.442;2024-03-23T12:58:41;94856.66;;;8.67;80.86
62634;BME280;48704;50.534;6.442;2024-03-23T13:01:06;94838.78;;;8.89;86.25
62634;BME280;48704;50.534;6.442;2024-03-23T13:03:31;94842.75;;;8.18;84.87
62634;BME280;48704;50.534;6.442;2024-03-23T13:05:57;94827.28;;;7.96;83.78
62634;BME280;48704;50.534;6.442;2024-03-23T13:08:22;94821.13;;;8.92;87.52
62634;BME280;48704;50.534;6.442;2024-03-23T13:10:51;94818.16;;;9.16;78.66
62634;BME280;48704;50.534;6.442;2024-03-23T13:13:17;94817.09;;;9.13;75.42
62634;BME280;48704;50.534;6.442;2024-03-23T13:15:42;94815.03;;;7.88;76.62
62634;BME280;48704;50.534;6.442;2024-03-23T13:18:07;94827.25;;;7.37;80.87
62634;BME280;48704;50.534;6.442;2024-03-23T13:20:35;94827.53;;;6.53;81.98
62634;BME280;48704;50.534;6.442;2024-03-23T13:23:00;94834.56;;;5.88;80.49
62634;BME280;48704;50.534;6.442;2024-03-23T13:25:26;94836.78;;;5.57;84.13
62634;BME280;48704;50.534;6.442;2024-03-23T13:27:51;94852.00;;;5.43;90.68
62634;BME280;48704;50.534;6.442;2024-03-23T13:30:16;94883.81;;;4.53;100.00
62634;BME280;48704;50.534;6.442;2024-03-23T13:32:42;94866.16;;;3.48;100.00
62634;BME280;48704;50.534;6.442;2024-03-23T13:35:07;94857.50;;;3.37;100.00
62634;BME280;48704;50.534;6.442;2024-03-23T13:37:32;94852.63;;;2.97;100.00
62634;BME280;48704;50.534;6.442;2024-03-23T13:39:59;94848.28;;;3.09;100.00
62634;BME280;48704;50.534;6.442;2024-03-23T13:42:24;94841.38;;;4.68;100.00
62634;BME280;48704;50.534;6.442;2024-03-23T13:44:51;94846.25;;;5.74;100.00
62634;BME280;48704;50.534;6.442;2024-03-23T13:47:16;94845.28;;;5.95;100.00
62634;BME280;48704;50.534;6.442;2024-03-23T13:49:41;94836.56;;;6.63;100.00
62634;BME280;48704;50.534;6.442;2024-03-23T13:52:07;94838.50;;;6.71;97.80
62634;BME280;48704;50.534;6.442;2024-03-23T13:54:32;94830.22;;;7.10;97.18
62634;BME280;48704;50.534;6.442;2024-03-23T13:56:58;94823.25;;;7.00;92.86
62634;BME280;48704;50.534;6.442;2024-03-23T13:59:23;94831.38;;;7.57;88.42
62634;BME280;48704;50.534;6.442;2024-03-23T14:01:49;94835.88;;;7.98;85.15